Terminal Aerodrome Forecast
Issued by NWS

Current Version | Previous Version | Text Only | Print | Product List | Glossary On
Versions: 1 2 3 4 5 6 7 8 9 10 11 12 13 14 15 16 17 18 19 20 21 22 23 24 25 26 27 28 29 30 31
000
FTUS41 KCTP 251740
TAFJST
TAF
KJST 251740Z 2518/2618 26016G27KT P6SM BKN025 BKN080
     FM252000 24015G25KT P6SM SCT025 BKN040
     FM260300 29014G24KT P6SM BKN017 OVC025
     FM261500 30018G32KT P6SM OVC022=

USA.gov is the U.S. government's official web portal to all federal, state and local government web resources and services.